Time;durP1;ratioP1;P1;durP2;ratioP2;P2;SDS_P1;SDS_P2;PMS_P1;PMS_P2;Temp;Humidity;BMP_temperature;BMP_pressure;BME280_temperature;BME280_humidity;BME280_pressure;Samples;Min_cycle;Max_cycle;Signal;HPM_P1;HPM_P2
2021/12/05 00:22:03;;;;;;;13.90;9.73;;;8.50;99.90;;;;;;5073422;28;20479;-74
2021/12/05 00:24:36;;;;;;;13.20;9.45;;;8.60;99.90;;;;;;5071220;28;20036;-73
2021/12/05 00:27:16;;;;;;;12.20;9.15;;;8.60;99.90;;;;;;5073068;28;20035;-73
2021/12/05 00:30:15;;;;;;;11.25;8.80;;;8.60;99.90;;;;;;5073036;28;20115;-73
2021/12/05 00:38:41;;;;;;;10.80;8.25;;;8.70;99.90;;;;;;5072994;28;20032;-73
2021/12/05 01:07:09;;;;;;;17.80;12.38;;;8.70;99.90;;;;;;5072558;28;20488;-74
2021/12/05 01:09:44;;;;;;;20.40;12.88;;;8.70;99.90;;;;;;5072147;28;20032;-75
2021/12/05 01:15:16;;;;;;;14.98;11.27;;;8.70;99.90;;;;;;5067674;28;20433;-74
2021/12/05 01:18:01;;;;;;;15.18;12.05;;;8.80;99.90;;;;;;5072013;28;20035;-74
2021/12/05 01:20:31;;;;;;;18.23;12.88;;;8.70;99.90;;;;;;5072374;28;20103;-82
2021/12/05 01:23:12;;;;;;;18.50;12.18;;;8.70;99.90;;;;;;5072277;28;20078;-82
2021/12/05 01:25:58;;;;;;;19.17;14.32;;;8.70;99.90;;;;;;5072669;28;20052;-74
2021/12/05 01:28:41;;;;;;;20.95;14.55;;;8.70;99.90;;;;;;5072353;28;20115;-74
2021/12/05 01:34:15;;;;;;;22.08;16.23;;;8.70;99.90;;;;;;5072524;28;20035;-73
2021/12/05 01:39:53;;;;;;;27.40;20.45;;;8.60;99.90;;;;;;5076091;28;20540;-73
2021/12/05 01:43:08;;;;;;;35.72;23.73;;;8.60;99.90;;;;;;5068683;28;20057;-75
2021/12/05 02:09:38;;;;;;;26.88;20.10;;;8.30;99.90;;;;;;5075696;28;20115;-74
2021/12/05 02:12:31;;;;;;;25.40;17.33;;;8.30;99.90;;;;;;5075445;28;20028;-74
2021/12/05 02:34:54;;;;;;;17.65;14.45;;;8.30;99.90;;;;;;5074945;28;20025;-73
2021/12/05 02:42:17;;;;;;;20.83;15.02;;;8.40;99.90;;;;;;5073842;28;20506;-82
2021/12/05 02:44:46;;;;;;;21.73;15.98;;;8.40;99.90;;;;;;5074742;28;20028;-82
2021/12/05 02:47:16;;;;;;;18.60;14.40;;;8.50;99.90;;;;;;5073390;28;20095;-84
2021/12/05 02:49:46;;;;;;;18.45;14.50;;;8.50;99.90;;;;;;5072629;28;20142;-79
2021/12/05 02:52:21;;;;;;;17.05;14.35;;;8.60;99.90;;;;;;5072818;28;20056;-83
2021/12/05 02:54:51;;;;;;;19.70;14.75;;;8.60;99.90;;;;;;5072607;28;20098;-83
2021/12/05 02:57:26;;;;;;;18.50;14.43;;;8.60;99.90;;;;;;5072978;28;20024;-74
2021/12/05 02:59:56;;;;;;;17.05;13.68;;;8.60;99.90;;;;;;5073857;28;20029;-83
2021/12/05 03:02:27;;;;;;;19.92;14.55;;;8.60;99.90;;;;;;5074091;28;20502;-80
2021/12/05 03:04:56;;;;;;;18.50;14.15;;;8.60;99.90;;;;;;5074696;28;20033;-77
2021/12/05 03:07:27;;;;;;;19.02;15.27;;;8.60;99.90;;;;;;5074131;28;20083;-77
2021/12/05 03:09:53;;;;;;;20.63;15.27;;;8.60;99.90;;;;;;5074303;28;20056;-75
2021/12/05 03:12:19;;;;;;;19.38;15.48;;;8.60;99.90;;;;;;5074298;28;20081;-81
2021/12/05 03:14:47;;;;;;;22.70;16.52;;;8.60;99.90;;;;;;5074065;28;20021;-73
2021/12/05 03:17:14;;;;;;;19.88;14.55;;;8.60;99.90;;;;;;5074516;28;20388;-75
2021/12/05 03:19:39;;;;;;;20.17;15.85;;;8.60;99.90;;;;;;5074028;28;20017;-73
2021/12/05 03:22:05;;;;;;;18.42;14.80;;;8.60;99.90;;;;;;5074007;28;20035;-82
2021/12/05 03:24:32;;;;;;;19.80;15.23;;;8.60;99.90;;;;;;5074265;28;20597;-84
2021/12/05 03:26:58;;;;;;;21.30;14.82;;;8.60;99.90;;;;;;5074320;28;20113;-75
2021/12/05 03:29:24;;;;;;;19.42;15.60;;;8.60;99.90;;;;;;5073957;28;20396;-74
2021/12/05 03:31:51;;;;;;;21.75;15.73;;;8.60;99.90;;;;;;5074100;28;20031;-82
2021/12/05 03:34:19;;;;;;;25.95;15.38;;;8.60;99.90;;;;;;5074207;28;20039;-75
2021/12/05 03:36:48;;;;;;;20.60;15.07;;;8.60;99.90;;;;;;5073334;28;20025;-83
2021/12/05 03:39:15;;;;;;;17.70;14.00;;;8.60;99.90;;;;;;5073369;28;20027;-75
2021/12/05 03:41:42;;;;;;;17.95;13.00;;;8.70;99.90;;;;;;5073633;28;20012;-84
2021/12/05 03:44:11;;;;;;;17.23;13.30;;;8.70;99.90;;;;;;5073536;28;20037;-75
2021/12/05 03:46:37;;;;;;;14.27;12.10;;;8.70;99.90;;;;;;5072241;28;20027;-77
2021/12/05 03:49:10;;;;;;;16.58;12.48;;;8.70;99.90;;;;;;5073376;28;20078;-76
2021/12/05 03:51:42;;;;;;;15.90;11.15;;;8.70;99.90;;;;;;5073627;28;20489;-74
2021/12/05 03:54:08;;;;;;;;;;;8.80;99.90;;;;;;5074074;28;20025;-74
2021/12/05 03:56:36;;;;;;;14.18;10.98;;;8.80;99.90;;;;;;5073601;28;19904;-74
2021/12/05 03:59:03;;;;;;;14.82;11.38;;;8.80;99.90;;;;;;5072530;28;20021;-74
2021/12/05 04:01:28;;;;;;;14.00;10.77;;;8.90;99.90;;;;;;5073543;28;20021;-74
2021/12/05 04:03:55;;;;;;;16.10;11.95;;;8.90;99.90;;;;;;5073404;28;20089;-77
2021/12/05 04:06:23;;;;;;;17.77;12.90;;;8.90;99.90;;;;;;5073455;28;20108;-75
2021/12/05 04:08:49;;;;;;;16.48;12.75;;;8.90;99.90;;;;;;5073254;28;20029;-75
2021/12/05 04:11:24;;;;;;;17.02;11.25;;;8.90;99.90;;;;;;5072925;28;20089;-74
2021/12/05 04:13:49;;;;;;;15.02;11.60;;;8.90;99.90;;;;;;5073201;28;20043;-74
2021/12/05 04:16:16;;;;;;;16.30;12.60;;;8.90;99.90;;;;;;5073040;28;20012;-77
2021/12/05 04:18:43;;;;;;;20.02;13.65;;;8.90;99.90;;;;;;5073056;28;20077;-74
2021/12/05 04:21:09;;;;;;;18.02;13.20;;;8.90;99.90;;;;;;5072783;28;20028;-83
2021/12/05 04:23:35;;;;;;;16.42;13.00;;;8.90;99.90;;;;;;5073034;28;20386;-77
2021/12/05 04:26:01;;;;;;;19.70;15.15;;;8.90;99.90;;;;;;5073004;28;20024;-80
2021/12/05 04:28:28;;;;;;;19.05;14.90;;;8.90;99.90;;;;;;5072744;28;20111;-73
2021/12/05 04:30:54;;;;;;;21.25;16.73;;;8.90;99.90;;;;;;5072635;28;20055;-74
2021/12/05 04:33:20;;;;;;;26.60;18.60;;;8.90;99.90;;;;;;5072487;28;20056;-79
2021/12/05 04:35:47;;;;;;;26.40;18.45;;;8.90;99.90;;;;;;5072356;28;20024;-75
2021/12/05 04:38:13;;;;;;;32.88;20.35;;;8.90;99.90;;;;;;5072624;28;20554;-78
2021/12/05 04:40:39;;;;;;;25.33;19.80;;;8.90;99.90;;;;;;5072981;28;20028;-75
2021/12/05 04:43:05;;;;;;;26.05;20.13;;;8.80;99.90;;;;;;5072691;28;20044;-74
2021/12/05 04:45:33;;;;;;;29.38;22.00;;;8.80;99.90;;;;;;5072700;28;20427;-75
2021/12/05 04:48:01;;;;;;;28.13;21.60;;;8.90;99.90;;;;;;5072587;28;20077;-73
2021/12/05 04:50:28;;;;;;;25.88;18.92;;;8.90;99.90;;;;;;5072566;28;20123;-82
2021/12/05 04:52:55;;;;;;;26.27;19.95;;;8.80;99.90;;;;;;5072494;28;20066;-75
2021/12/05 04:55:22;;;;;;;27.58;18.95;;;8.80;99.90;;;;;;5072340;28;20024;-80
2021/12/05 04:57:48;;;;;;;23.48;17.08;;;8.80;99.90;;;;;;5072207;28;20025;-75
2021/12/05 05:00:40;;;;;;;22.45;15.65;;;8.80;99.90;;;;;;5072232;28;20469;-78
2021/12/05 05:03:07;;;;;;;22.90;16.55;;;8.70;99.90;;;;;;5071384;28;20477;-75
2021/12/05 05:05:33;;;;;;;20.30;16.10;;;8.80;99.90;;;;;;5070567;28;20094;-83
2021/12/05 05:07:59;;;;;;;22.23;16.98;;;8.70;99.90;;;;;;5070608;28;20017;-74
2021/12/05 05:10:30;;;;;;;21.30;16.85;;;8.70;99.90;;;;;;5071709;28;20043;-78
2021/12/05 05:12:57;;;;;;;22.88;16.58;;;8.70;99.90;;;;;;5073413;28;20090;-74
2021/12/05 05:15:26;;;;;;;27.05;18.10;;;8.70;99.90;;;;;;5074839;28;20120;-75
2021/12/05 05:17:54;;;;;;;21.92;16.45;;;8.70;99.90;;;;;;5075345;28;20024;-82
2021/12/05 05:20:54;;;;;;;19.52;16.00;;;8.80;99.90;;;;;;5076758;28;20025;-74
2021/12/05 05:49:55;;;;;;;23.58;17.58;;;8.80;99.90;;;;;;5076159;28;20485;-81
2021/12/05 05:52:21;;;;;;;24.80;19.05;;;8.80;99.90;;;;;;5075899;28;20029;-74
2021/12/05 05:54:48;;;;;;;27.90;19.75;;;8.80;99.90;;;;;;5076153;28;20484;-84
2021/12/05 05:57:28;;;;;;;16.55;11.13;;;8.80;99.90;;;;;;5074945;28;20024;-74
2021/12/05 06:00:01;;;;;;;11.68;9.80;;;8.90;99.90;;;;;;5075588;28;20021;-74
2021/12/05 06:05:12;;;;;;;15.05;9.77;;;8.90;99.90;;;;;;5076091;28;20036;-74
2021/12/05 06:07:45;;;;;;;14.73;10.90;;;8.90;99.90;;;;;;5075595;28;20020;-75
2021/12/05 06:10:21;;;;;;;12.27;10.07;;;8.90;99.90;;;;;;5075672;28;20477;-75
2021/12/05 06:12:47;;;;;;;18.02;11.65;;;8.90;99.90;;;;;;5075663;28;20366;-74
2021/12/05 06:15:15;;;;;;;13.48;9.40;;;8.90;99.90;;;;;;5075582;28;20032;-80
2021/12/05 06:17:41;;;;;;;15.60;11.38;;;9.00;99.90;;;;;;5075626;28;20487;-75
2021/12/05 06:20:09;;;;;;;14.35;10.93;;;9.00;99.90;;;;;;5075592;28;20066;-74
2021/12/05 06:22:35;;;;;;;12.27;9.20;;;9.00;99.90;;;;;;5074258;28;20047;-74
2021/12/05 06:25:03;;;;;;;13.07;9.82;;;9.00;99.90;;;;;;5075217;28;20024;-75
2021/12/05 06:27:28;;;;;;;13.90;10.70;;;9.00;99.90;;;;;;5074869;28;20446;-82
2021/12/05 06:30:05;;;;;;;14.50;10.55;;;9.00;99.90;;;;;;5074647;28;20021;-74
2021/12/05 06:46:10;;;;;;;13.88;9.57;;;9.00;99.90;;;;;;5074916;28;20070;-74
2021/12/05 06:48:36;;;;;;;12.40;7.70;;;9.10;99.90;;;;;;5074652;28;20031;-75
2021/12/05 06:51:03;;;;;;;8.90;7.10;;;9.00;99.90;;;;;;5074640;28;20021;-73
2021/12/05 06:53:29;;;;;;;8.45;6.93;;;9.10;99.90;;;;;;5074780;28;20377;-74
2021/12/05 06:55:54;;;;;;;13.15;7.00;;;9.10;99.90;;;;;;5074624;28;20027;-75
2021/12/05 06:58:20;;;;;;;9.05;6.43;;;9.10;99.90;;;;;;5074608;28;20033;-74
2021/12/05 07:00:46;;;;;;;7.97;6.80;;;9.20;99.90;;;;;;5074234;28;20024;-73
2021/12/05 07:03:12;;;;;;;7.75;4.97;;;9.20;99.90;;;;;;5074581;28;20457;-74
2021/12/05 07:08:15;;;;;;;8.23;6.10;;;9.30;99.90;;;;;;5074175;28;20538;-73
2021/12/05 07:10:50;;;;;;;8.55;6.10;;;9.30;99.90;;;;;;5074488;28;20430;-74
2021/12/05 07:16:02;;;;;;;10.43;7.57;;;9.30;99.90;;;;;;5074178;28;20539;-74
2021/12/05 07:42:47;;;;;;;10.43;4.03;;;9.80;99.90;;;;;;5073760;28;20101;-83
2021/12/05 07:45:20;;;;;;;7.43;4.13;;;9.90;99.90;;;;;;5073715;28;20426;-74
2021/12/05 07:47:50;;;;;;;10.07;4.22;;;9.90;99.90;;;;;;5073387;28;20029;-74
2021/12/05 07:50:17;;;;;;;10.45;4.32;;;9.90;99.90;;;;;;5073480;28;20025;-74
2021/12/05 07:52:49;;;;;;;6.43;4.00;;;10.00;99.90;;;;;;5073630;28;20032;-77
2021/12/05 07:55:21;;;;;;;9.20;4.10;;;10.10;99.90;;;;;;5073615;28;20016;-75
2021/12/05 08:00:31;;;;;;;10.93;5.25;;;10.30;99.90;;;;;;5073355;28;20081;-74
2021/12/05 08:16:41;;;;;;;14.15;5.30;;;10.30;99.90;;;;;;5072740;28;20094;-78
2021/12/05 08:19:07;;;;;;;17.42;5.40;;;10.30;99.90;;;;;;5072693;28;20477;-74
2021/12/05 08:21:32;;;;;;;13.63;5.65;;;10.30;99.90;;;;;;5072608;28;20020;-75
2021/12/05 08:23:58;;;;;;;10.30;4.78;;;10.30;99.90;;;;;;5072719;28;20039;-75
2021/12/05 08:26:31;;;;;;;14.88;5.68;;;10.30;99.90;;;;;;5073074;28;20404;-77
2021/12/05 08:29:05;;;;;;;15.63;9.30;;;10.30;99.90;;;;;;5072916;28;20024;-76
2021/12/05 08:45:46;;;;;;;23.63;9.07;;;9.60;99.90;;;;;;5072125;28;20025;-76
2021/12/05 10:09:59;;;;;;;15.27;10.00;;;8.50;99.90;;;;;;5074422;28;20029;-78
2021/12/05 10:27:25;;;;;;;16.55;11.50;;;8.40;99.90;;;;;;5075020;28;20086;-81
2021/12/05 10:38:24;;;;;;;20.88;14.40;;;8.20;99.90;;;;;;5072619;28;20071;-84
2021/12/05 10:43:41;;;;;;;19.52;13.70;;;8.20;99.90;;;;;;5072596;28;20056;-74
2021/12/05 10:46:10;;;;;;;25.27;12.45;;;8.20;99.90;;;;;;5073718;28;20033;-80
2021/12/05 10:48:42;;;;;;;18.05;11.48;;;8.20;99.90;;;;;;5073451;28;20024;-78
2021/12/05 10:51:10;;;;;;;16.05;12.27;;;8.20;99.90;;;;;;5071957;28;20373;-73
2021/12/05 10:53:46;;;;;;;20.58;13.93;;;8.20;99.90;;;;;;5072699;28;20027;-73
2021/12/05 10:56:30;;;;;;;18.67;12.02;;;8.10;99.90;;;;;;5071829;28;20078;-76
2021/12/05 10:59:31;;;;;;;17.33;11.93;;;8.10;99.90;;;;;;5071811;28;20052;-81
2021/12/05 11:02:01;;;;;;;15.80;10.15;;;8.20;99.90;;;;;;5054352;28;20028;-80
2021/12/05 11:04:33;;;;;;;18.20;11.40;;;8.10;99.90;;;;;;5072928;28;20032;-83
2021/12/05 11:07:07;;;;;;;15.35;12.30;;;8.10;99.90;;;;;;5074416;28;20067;-84
2021/12/05 11:09:41;;;;;;;18.63;11.43;;;8.10;99.90;;;;;;5073782;28;20377;-84
2021/12/05 11:12:18;;;;;;;14.85;10.43;;;8.20;99.90;;;;;;5073467;28;20043;-82
2021/12/05 11:14:46;;;;;;;12.75;10.38;;;8.40;99.90;;;;;;5072073;28;20056;-83
2021/12/05 11:17:32;;;;;;;16.70;10.32;;;8.60;99.90;;;;;;5073882;28;20034;-83
2021/12/05 11:20:11;;;;;;;14.48;10.43;;;9.00;99.90;;;;;;5073249;28;20043;-82
2021/12/05 11:22:42;;;;;;;14.88;9.88;;;9.30;99.90;;;;;;5072616;28;20511;-76
2021/12/05 11:25:21;;;;;;;14.35;10.70;;;9.40;99.90;;;;;;5073631;28;20107;-77
2021/12/05 11:27:49;;;;;;;13.90;9.77;;;9.20;99.90;;;;;;5072561;28;20484;-75
2021/12/05 11:30:21;;;;;;;25.38;11.00;;;9.10;99.90;;;;;;5073883;28;20023;-75
2021/12/05 11:32:52;;;;;;;;;;;8.90;99.90;;;;;;5073706;28;20016;-75
2021/12/05 11:35:25;;;;;;;13.40;9.18;;;8.80;99.90;;;;;;5073629;28;20365;-75
2021/12/05 11:37:54;;;;;;;10.00;8.50;;;8.70;99.90;;;;;;5073242;28;20500;-77
2021/12/05 11:40:22;;;;;;;13.38;9.20;;;8.60;99.90;;;;;;5073616;28;20078;-74
2021/12/05 11:42:52;;;;;;;12.25;9.38;;;8.50;99.90;;;;;;5073743;28;20372;-76
2021/12/05 11:45:18;;;;;;;14.75;10.00;;;8.40;99.90;;;;;;5073711;28;20029;-74
2021/12/05 11:47:43;;;;;;;17.00;11.80;;;8.30;99.90;;;;;;5073463;28;20040;-74
2021/12/05 11:50:09;;;;;;;18.30;11.25;;;8.30;99.90;;;;;;5071970;28;20116;-77
2021/12/05 11:52:40;;;;;;;18.95;10.45;;;8.30;99.90;;;;;;5073190;28;20064;-76
2021/12/05 11:55:18;;;;;;;15.15;10.43;;;8.30;99.90;;;;;;5071318;28;20035;-77
2021/12/05 11:57:44;;;;;;;15.88;10.15;;;8.40;99.90;;;;;;5071128;28;20025;-75
2021/12/05 12:00:15;;;;;;;13.80;9.25;;;8.40;99.90;;;;;;5072848;28;20009;-77
2021/12/05 12:02:43;;;;;;;12.93;9.60;;;8.50;99.90;;;;;;5073330;28;20116;-74
2021/12/05 12:05:17;;;;;;;15.05;8.57;;;8.50;99.90;;;;;;5073175;28;20036;-75
2021/12/05 12:07:49;;;;;;;10.77;7.82;;;8.50;99.90;;;;;;5072820;28;20025;-74
2021/12/05 12:10:25;;;;;;;;;;;8.50;99.90;;;;;;5072215;28;20028;-77
2021/12/05 12:13:04;;;;;;;16.10;10.82;;;8.50;99.90;;;;;;5070284;28;20273;-76
2021/12/05 12:15:31;;;;;;;11.73;8.65;;;8.50;99.90;;;;;;5071360;28;20030;-74
2021/12/05 12:18:07;;;;;;;13.70;9.63;;;8.50;99.90;;;;;;5070864;28;20017;-77
2021/12/05 12:20:36;;;;;;;14.70;9.25;;;8.50;99.90;;;;;;5071672;28;20484;-78
2021/12/05 12:23:02;;;;;;;15.02;9.88;;;8.50;99.90;;;;;;5070582;28;20028;-76
2021/12/05 12:25:32;;;;;;;13.20;9.00;;;8.50;99.90;;;;;;5071967;28;20024;-75
2021/12/05 12:27:58;;;;;;;13.93;9.95;;;8.40;99.90;;;;;;5072240;28;20129;-76
2021/12/05 12:30:28;;;;;;;17.10;11.52;;;8.30;99.90;;;;;;5071631;28;20444;-73
2021/12/05 12:33:01;;;;;;;20.48;13.18;;;8.30;99.90;;;;;;5068991;28;20469;-77
2021/12/05 12:35:29;;;;;;;17.50;13.10;;;8.30;99.90;;;;;;5071505;28;20100;-75
2021/12/05 12:38:09;;;;;;;23.33;15.85;;;8.30;99.90;;;;;;5070193;28;20035;-75
2021/12/05 12:40:48;;;;;;;29.23;18.85;;;8.30;99.90;;;;;;5070800;28;20021;-76
2021/12/05 12:43:45;;;;;;;21.60;15.18;;;8.30;99.90;;;;;;5069151;28;20040;-78
2021/12/05 12:46:37;;;;;;;27.25;14.13;;;8.20;99.90;;;;;;5071150;28;20033;-76
2021/12/05 12:49:15;;;;;;;;;;;8.20;99.90;;;;;;5071579;28;20043;-76
2021/12/05 12:51:47;;;;;;;20.50;14.00;;;8.20;99.90;;;;;;5071802;28;19908;-78
2021/12/05 12:54:24;;;;;;;21.50;13.20;;;8.30;99.90;;;;;;5068726;28;20040;-75
2021/12/05 12:57:14;;;;;;;22.27;14.43;;;8.30;99.90;;;;;;5071848;28;20045;-78
2021/12/05 13:00:00;;;;;;;36.90;19.95;;;8.30;99.90;;;;;;5071689;28;20016;-74
2021/12/05 13:05:42;;;;;;;23.90;14.25;;;8.30;99.90;;;;;;5071713;28;20024;-74
2021/12/05 13:11:23;;;;;;;36.50;18.23;;;8.20;99.90;;;;;;5071843;28;20039;-75
2021/12/05 13:14:04;;;;;;;28.20;16.27;;;8.20;99.90;;;;;;5071830;28;20021;-74
2021/12/05 13:16:34;;;;;;;17.88;13.07;;;8.20;99.90;;;;;;5071870;28;20427;-76
2021/12/05 13:19:22;;;;;;;18.83;10.88;;;8.30;99.90;;;;;;5070989;28;20059;-76
2021/12/05 13:21:52;;;;;;;20.67;11.25;;;8.20;99.90;;;;;;5071479;28;20070;-75
2021/12/05 13:24:38;;;;;;;14.75;11.20;;;8.20;99.90;;;;;;5071478;28;20035;-76
2021/12/05 13:27:23;;;;;;;21.10;11.65;;;8.20;99.90;;;;;;5070474;28;20381;-76
2021/12/05 13:29:52;;;;;;;61.72;24.63;;;8.20;99.90;;;;;;5070259;28;20078;-75
2021/12/05 13:32:25;;;;;;;77.05;45.08;;;8.20;99.90;;;;;;5074051;28;20032;-79
2021/12/05 13:35:00;;;;;;;31.13;18.77;;;8.10;99.90;;;;;;5075358;28;20051;-76
2021/12/05 13:37:36;;;;;;;46.35;30.52;;;8.00;99.90;;;;;;5074212;28;20024;-76
2021/12/05 13:40:23;;;;;;;27.17;16.60;;;8.00;99.90;;;;;;5075174;28;20052;-76
2021/12/05 13:42:53;;;;;;;37.00;27.60;;;7.90;99.90;;;;;;5074770;28;20477;-76
2021/12/05 13:45:25;;;;;;;21.40;16.20;;;7.90;99.90;;;;;;5075375;28;20380;-76
2021/12/05 13:47:51;;;;;;;64.50;48.00;;;8.00;99.90;;;;;;5073836;28;20021;-77
2021/12/05 13:50:22;;;;;;;35.70;26.73;;;7.90;99.90;;;;;;5074738;28;20035;-76
2021/12/05 13:53:03;;;;;;;24.42;18.38;;;7.90;99.90;;;;;;5074993;28;20384;-76
2021/12/05 13:55:39;;;;;;;27.77;18.40;;;7.80;99.90;;;;;;5074654;28;20032;-77
2021/12/05 13:58:28;;;;;;;27.77;19.58;;;7.80;99.90;;;;;;5075192;28;20103;-75
2021/12/05 14:00:58;;;;;;;26.42;17.35;;;7.70;99.90;;;;;;5075178;28;20024;-80
2021/12/05 14:03:46;;;;;;;12.52;7.68;;;7.70;99.90;;;;;;5074892;28;20032;-76
2021/12/05 14:06:28;;;;;;;18.60;8.82;;;7.60;99.90;;;;;;5072550;28;20035;-75
2021/12/05 14:09:00;;;;;;;13.98;7.78;;;7.60;99.90;;;;;;5074354;28;20021;-76
2021/12/05 14:11:27;;;;;;;13.80;8.50;;;7.70;99.90;;;;;;5073648;28;20031;-77
2021/12/05 14:13:53;;;;;;;22.08;12.45;;;7.60;99.90;;;;;;5073700;28;20044;-76
2021/12/05 14:16:20;;;;;;;32.92;12.45;;;7.60;99.90;;;;;;5074130;28;20028;-77
2021/12/05 14:18:47;;;;;;;85.85;32.33;;;7.60;99.90;;;;;;5073741;28;20067;-77
2021/12/05 14:21:18;;;;;;;124.13;43.33;;;7.60;99.90;;;;;;5074426;28;20085;-78
2021/12/05 14:23:49;;;;;;;63.33;21.75;;;7.50;99.90;;;;;;5074098;28;20431;-76
2021/12/05 14:26:20;;;;;;;51.47;17.20;;;7.50;99.90;;;;;;5074188;28;20111;-74
2021/12/05 14:29:26;;;;;;;78.07;43.83;;;7.40;99.90;;;;;;5074216;28;20546;-76
2021/12/05 14:32:02;;;;;;;108.97;64.47;;;7.30;99.90;;;;;;5032175;28;20381;-76
2021/12/05 14:34:29;;;;;;;80.43;38.05;;;7.30;99.90;;;;;;5031956;28;20413;-77
2021/12/05 14:37:11;;;;;;;43.20;23.13;;;7.30;99.90;;;;;;5044279;28;20103;-78
2021/12/05 14:39:45;;;;;;;46.63;27.52;;;7.30;99.90;;;;;;5067698;28;20020;-75
2021/12/05 14:42:16;;;;;;;77.00;41.55;;;7.30;99.90;;;;;;5073775;28;20033;-78
2021/12/05 14:44:44;;;;;;;74.47;38.45;;;7.30;99.90;;;;;;5073556;28;20032;-80
2021/12/05 14:47:16;;;;;;;77.78;38.28;;;7.30;99.90;;;;;;5073888;28;20028;-75
2021/12/05 14:49:52;;;;;;;27.02;16.98;;;7.30;99.90;;;;;;5074176;28;20051;-75
2021/12/05 14:52:26;;;;;;;13.63;7.80;;;7.40;99.90;;;;;;5074218;28;20020;-78
2021/12/05 14:54:53;;;;;;;39.58;19.73;;;7.30;99.90;;;;;;5073655;28;20031;-78
2021/12/05 14:57:25;;;;;;;36.15;13.15;;;7.30;99.90;;;;;;5073943;28;20024;-77
2021/12/05 15:00:03;;;;;;;43.08;16.13;;;7.30;99.90;;;;;;5073729;28;20343;-77
2021/12/05 15:02:29;;;;;;;41.08;17.75;;;7.30;99.90;;;;;;5073981;28;20388;-74
2021/12/05 15:04:55;;;;;;;21.73;12.23;;;7.40;99.90;;;;;;5073453;28;20039;-75
2021/12/05 15:07:24;;;;;;;51.58;22.83;;;7.50;99.90;;;;;;5072965;28;20029;-77
2021/12/05 15:09:53;;;;;;;10.82;5.88;;;7.40;99.90;;;;;;5073453;28;20021;-75
2021/12/05 15:12:39;;;;;;;9.98;6.55;;;7.40;99.90;;;;;;5073567;28;20027;-77
2021/12/05 15:15:08;;;;;;;15.65;9.43;;;7.40;99.90;;;;;;5073164;28;20455;-77
2021/12/05 15:17:38;;;;;;;19.13;11.98;;;7.40;99.90;;;;;;5073419;28;20054;-76
2021/12/05 15:20:08;;;;;;;16.05;7.43;;;7.50;99.90;;;;;;5073457;28;20048;-76
2021/12/05 15:22:34;;;;;;;38.75;19.02;;;7.40;99.90;;;;;;5072799;28;20021;-79
2021/12/05 15:25:06;;;;;;;17.63;9.70;;;7.40;99.90;;;;;;5072401;28;20024;-80
2021/12/05 15:27:33;;;;;;;;;;;7.30;99.90;;;;;;5072004;28;20029;-76
2021/12/05 15:30:04;;;;;;;5.93;3.67;;;7.30;99.90;;;;;;5072022;28;19927;-76
2021/12/05 15:32:32;;;;;;;3.90;2.72;;;7.20;99.90;;;;;;5072161;28;20020;-76
2021/12/05 15:35:11;;;;;;;3.00;2.25;;;7.20;99.90;;;;;;5071925;28;20033;-76
2021/12/05 15:37:37;;;;;;;9.25;5.32;;;7.20;99.90;;;;;;5071766;28;20024;-76
2021/12/05 15:40:05;;;;;;;5.50;3.20;;;7.20;99.90;;;;;;5068903;28;20099;-75
2021/12/05 15:42:36;;;;;;;4.43;3.55;;;7.20;99.90;;;;;;5071305;28;20396;-77
2021/12/05 15:45:08;;;;;;;3.00;2.40;;;7.20;99.90;;;;;;5071905;28;20056;-83
2021/12/05 15:47:36;;;;;;;3.05;2.30;;;7.20;99.90;;;;;;5071220;28;20044;-79
2021/12/05 15:50:12;;;;;;;3.33;2.20;;;7.20;99.90;;;;;;5067949;28;20501;-78
2021/12/05 15:52:56;;;;;;;2.80;2.35;;;7.20;99.90;;;;;;5070142;28;21285;-79
2021/12/05 15:55:33;;;;;;;2.00;1.80;;;7.20;99.90;;;;;;5067278;28;20033;-77
2021/12/05 15:58:18;;;;;;;1.42;1.33;;;7.20;99.90;;;;;;5070564;28;20461;-77
2021/12/05 16:00:59;;;;;;;11.50;2.05;;;7.20;99.90;;;;;;5071104;28;20063;-81
2021/12/05 16:03:37;;;;;;;3.75;2.50;;;7.30;99.90;;;;;;5071650;28;20751;-77
2021/12/05 16:06:04;;;;;;;2.38;2.05;;;7.30;99.90;;;;;;5071559;28;20027;-76
2021/12/05 16:08:32;;;;;;;2.65;2.03;;;7.30;99.90;;;;;;5071289;28;20024;-75
2021/12/05 16:10:59;;;;;;;1.80;1.63;;;7.30;99.90;;;;;;5072059;28;20028;-76
2021/12/05 16:13:38;;;;;;;1.50;1.40;;;7.30;99.90;;;;;;5072184;28;20032;-76
2021/12/05 16:16:11;;;;;;;3.88;1.85;;;7.40;99.90;;;;;;5070991;28;20012;-78
2021/12/05 16:18:39;;;;;;;3.75;1.20;;;7.40;99.90;;;;;;5071668;28;20028;-77
2021/12/05 16:21:27;;;;;;;1.55;1.20;;;7.40;99.90;;;;;;5072241;28;20027;-78
2021/12/05 16:23:55;;;;;;;2.08;1.65;;;7.40;99.90;;;;;;5071923;28;20049;-78
2021/12/05 16:26:26;;;;;;;1.70;1.58;;;7.40;99.90;;;;;;5070824;28;20019;-78
2021/12/05 16:29:01;;;;;;;1.33;1.25;;;7.40;99.90;;;;;;5063898;28;20049;-78
2021/12/05 16:31:30;;;;;;;1.90;1.70;;;7.40;99.90;;;;;;5071802;28;20024;-78
2021/12/05 16:34:05;;;;;;;1.70;1.60;;;7.40;99.90;;;;;;5070425;28;20025;-78
2021/12/05 16:36:35;;;;;;;3.38;1.48;;;7.40;99.90;;;;;;5072100;28;20024;-78
2021/12/05 16:39:12;;;;;;;1.80;1.70;;;7.40;99.90;;;;;;5071645;28;20060;-77
2021/12/05 16:41:44;;;;;;;3.13;1.40;;;7.40;99.90;;;;;;5072121;28;20025;-78
2021/12/05 16:44:16;;;;;;;1.63;1.52;;;7.30;99.90;;;;;;5071395;28;20052;-77
2021/12/05 16:46:48;;;;;;;1.27;1.15;;;7.30;99.90;;;;;;5087395;28;20423;-79
2021/12/05 16:49:18;;;;;;;1.77;1.42;;;7.30;99.90;;;;;;5069960;28;20055;-76
2021/12/05 16:51:56;;;;;;;2.50;2.30;;;7.30;99.90;;;;;;5071254;28;20534;-76
2021/12/05 16:54:25;;;;;;;1.75;1.65;;;7.20;99.90;;;;;;5071524;28;20103;-75
2021/12/05 16:56:59;;;;;;;3.88;2.40;;;7.20;99.90;;;;;;5071167;28;20021;-76
2021/12/05 16:59:44;;;;;;;6.90;5.25;;;7.20;99.90;;;;;;5070678;28;20047;-76
2021/12/05 17:02:15;;;;;;;2.42;1.85;;;7.20;99.90;;;;;;5071518;28;20031;-78
2021/12/05 17:04:48;;;;;;;6.05;5.55;;;7.20;99.90;;;;;;5070195;28;20047;-76
2021/12/05 17:07:17;;;;;;;2.08;1.80;;;7.20;99.90;;;;;;5069568;28;20033;-75
2021/12/05 17:09:43;;;;;;;2.97;2.67;;;7.20;99.90;;;;;;5068850;28;20028;-76
2021/12/05 17:12:29;;;;;;;5.40;2.25;;;7.20;99.90;;;;;;5071334;28;20491;-76
2021/12/05 17:15:19;;;;;;;1.70;1.60;;;7.30;99.90;;;;;;5071213;28;20016;-75
2021/12/05 17:17:46;;;;;;;11.90;8.85;;;7.20;99.90;;;;;;5069944;28;20024;-78
2021/12/05 17:20:23;;;;;;;2.53;2.08;;;7.30;99.90;;;;;;5071369;28;20050;-78
2021/12/05 17:22:58;;;;;;;3.78;3.40;;;7.20;99.90;;;;;;5071127;28;20063;-78
2021/12/05 17:25:38;;;;;;;2.80;2.50;;;7.30;99.90;;;;;;5071031;28;20029;-77
2021/12/05 17:28:06;;;;;;;8.30;7.03;;;7.30;99.90;;;;;;5071170;28;20027;-79
2021/12/05 17:30:32;;;;;;;2.63;2.03;;;7.30;99.90;;;;;;5071505;28;20028;-78
2021/12/05 17:32:59;;;;;;;2.40;2.08;;;7.30;99.90;;;;;;5071953;28;20028;-76
2021/12/05 17:35:29;;;;;;;3.42;2.45;;;7.40;99.90;;;;;;5071632;28;20069;-76
2021/12/05 17:37:56;;;;;;;2.00;1.63;;;7.40;99.90;;;;;;5071240;28;20021;-75
2021/12/05 17:40:25;;;;;;;2.17;1.70;;;7.40;99.90;;;;;;5070391;28;20161;-76
2021/12/05 17:42:51;;;;;;;1.55;1.40;;;7.40;99.90;;;;;;5070868;28;20044;-75
2021/12/05 17:45:18;;;;;;;1.90;1.75;;;7.40;99.90;;;;;;5071134;28;20512;-78
2021/12/05 17:47:44;;;;;;;23.63;8.23;;;7.40;99.90;;;;;;5069701;28;20107;-75
2021/12/05 17:50:14;;;;;;;27.55;10.95;;;7.40;99.90;;;;;;5071163;28;20028;-75
2021/12/05 17:52:40;;;;;;;13.05;6.20;;;7.40;99.90;;;;;;5071329;28;20104;-75
2021/12/05 17:55:19;;;;;;;9.68;4.15;;;7.40;99.90;;;;;;5071126;28;20532;-75
2021/12/05 17:57:54;;;;;;;7.63;3.53;;;7.40;99.90;;;;;;5071070;28;20024;-75
2021/12/05 18:00:38;;;;;;;2.25;1.83;;;7.50;99.90;;;;;;5070689;28;20028;-75
2021/12/05 18:03:09;;;;;;;1.83;1.48;;;7.50;99.90;;;;;;5070787;28;20365;-75
2021/12/05 18:05:44;;;;;;;11.52;4.38;;;7.50;99.90;;;;;;5067847;28;20019;-75
2021/12/05 18:08:13;;;;;;;7.45;3.83;;;7.50;99.90;;;;;;5068250;28;20110;-75
2021/12/05 18:10:47;;;;;;;3.13;2.53;;;7.50;99.90;;;;;;5069617;28;20052;-75
2021/12/05 18:13:13;;;;;;;2.67;1.98;;;7.50;99.90;;;;;;5068566;28;20078;-76
2021/12/05 18:15:55;;;;;;;2.70;2.10;;;7.60;99.90;;;;;;5069621;28;20358;-75
2021/12/05 18:18:21;;;;;;;2.17;1.73;;;7.60;99.90;;;;;;5068061;28;20020;-76
2021/12/05 18:20:47;;;;;;;1.73;1.40;;;7.60;99.90;;;;;;5073611;28;20507;-77
2021/12/05 18:23:14;;;;;;;19.88;10.60;;;7.60;99.90;;;;;;5073503;28;20037;-76
2021/12/05 18:25:41;;;;;;;3.65;2.95;;;7.60;99.90;;;;;;5073473;28;20044;-77
2021/12/05 18:28:07;;;;;;;9.77;5.88;;;7.50;99.90;;;;;;5072329;28;20376;-77
2021/12/05 18:30:36;;;;;;;4.35;2.97;;;7.50;99.90;;;;;;5072222;28;20070;-77
2021/12/05 18:33:04;;;;;;;17.65;9.30;;;7.50;99.90;;;;;;5073517;28;20020;-77
2021/12/05 18:35:31;;;;;;;8.18;4.88;;;7.50;99.90;;;;;;5072067;28;20021;-76
2021/12/05 18:38:04;;;;;;;7.30;4.38;;;7.40;99.90;;;;;;5073295;28;20419;-76